Barfleur — FNIE — position and weather

sailwx.info

Track history (hours):
 
Tides and Currents Weather Stations Pressure Air Temp Water Temp Dewpoint Dewpoint Depression Visibility Wind Speed Wind Dir Waves Ship Positions

Barfleur

Operator: Brittany Ferries

Last reported at 2018-May-27 13:30 UTC. Time now 2018-May-27 13:55 UTC.
Position N 49°39' W 001°37'.

Length 158 m; draft 5 m.

Type: Ship. MMSI: 227289000.

Date/timePositionNaut miles runAvg speedWind from/ knotsBaromVisibWave heightAir tempDewpointWater temp
2018-May-27 13:30N 49°39' W 001°37'0 0.0
2018-May-27 13:00N 49°39' W 001°37'0 0.0
2018-May-27 12:31N 49°39' W 001°37'0 0.0
2018-May-27 12:01N 49°39' W 001°37'0 0.6
2018-May-27 11:31N 49°39' W 001°37'611.7
2018-May-27 11:00N 49°44' W 001°41'918.3
2018-May-27 10:30N 49°53' W 001°43'918.7
2018-May-27 10:01N 50°03' W 001°46'1019.0
2018-May-27 09:31N 50°12' W 001°48'1019.1
2018-May-27 09:00N 50°22' W 001°50'919.0
2018-May-27 08:30N 50°31' W 001°52'917.4
2018-May-27 08:00N 50°39' W 001°55'4 8.1
2018-May-27 07:30N 50°42' W 001°59'0 0.0
2018-May-27 06:58N 50°42' W 001°59'0 0.0
2018-May-27 06:30N 50°42' W 001°59'0 0.0
2018-May-27 05:58N 50°42' W 001°59'0 0.0
2018-May-27 05:31N 50°42' W 001°59'0 0.0
2018-May-27 04:59N 50°42' W 001°59'0 0.0
2018-May-27 04:30N 50°42' W 001°59'0 0.0
2018-May-27 04:00N 50°42' W 001°59'0 0.0
2018-May-27 03:30N 50°42' W 001°59'0 0.0
2018-May-27 03:00N 50°42' W 001°59'0 0.0
2018-May-27 02:28N 50°42' W 001°59'0 0.0
2018-May-27 01:58N 50°42' W 001°59'0 0.0
2018-May-27 01:29N 50°42' W 001°59'0 0.0
2018-May-27 01:01N 50°42' W 001°59'0 0.0
2018-May-27 00:30N 50°42' W 001°59'0 0.0
2018-May-27 00:00N 50°42' W 001°59'0 0.0
2018-May-26 23:30N 50°42' W 001°59'0 0.0
2018-May-26 23:00N 50°42' W 001°59'0 0.0
2018-May-26 22:29N 50°42' W 001°59'0 0.0
2018-May-26 21:53N 50°42' W 001°59'0 0.0
2018-May-26 21:30N 50°42' W 001°59'0 0.6
2018-May-26 20:59N 50°42' W 001°59'4 8.7
2018-May-26 20:30N 50°39' W 001°55'816.1
2018-May-26 20:00N 50°31' W 001°52'1 0.1
2018-May-26 08:30N 50°30' W 001°52'918.6
2018-May-26 08:00N 50°39' W 001°55'4 7.7
2018-May-26 07:29N 50°42' W 001°59'0 0.0
2018-May-26 06:59N 50°42' W 001°59'0 0.0
2018-May-26 06:29N 50°42' W 001°59'0 0.0
2018-May-26 05:29N 50°42' W 001°59'0 0.0
2018-May-26 04:54N 50°42' W 001°59'0 0.0
2018-May-26 04:30N 50°42' W 001°59'0 0.0
2018-May-26 03:55N 50°42' W 001°59'0 0.0
2018-May-26 03:30N 50°42' W 001°59'0 0.0
2018-May-26 03:00N 50°42' W 001°59'0 0.0
2018-May-26 02:31N 50°42' W 001°59'0 0.0
2018-May-26 01:58N 50°42' W 001°59'0 0.0
2018-May-26 01:28N 50°42' W 001°59'0 0.0
2018-May-26 00:56N 50°42' W 001°59'0 0.0
2018-May-26 00:25N 50°42' W 001°59'0 0.0
2018-May-25 23:56N 50°42' W 001°59'0 0.0
2018-May-25 23:29N 50°42' W 001°59'0 0.0
2018-May-25 22:56N 50°42' W 001°59'0 0.0
2018-May-25 22:25N 50°42' W 001°59'0 0.0
2018-May-25 21:58N 50°42' W 001°59'0 0.0
2018-May-25 21:28N 50°42' W 001°59'0 0.0
2018-May-25 21:00N 50°42' W 001°59'0 1.0
2018-May-25 20:30N 50°42' W 001°59'611.3
2018-May-25 20:00N 50°38' W 001°54'1117.4
2018-May-25 19:21N 50°26' W 001°52'717.8
2018-May-25 18:59N 50°20' W 001°51'918.2
2018-May-25 18:29N 50°11' W 001°49'918.2
2018-May-25 18:00N 50°02' W 001°47'918.1
2018-May-25 17:30N 49°53' W 001°45'917.3
2018-May-25 17:01N 49°45' W 001°42'611.6
2018-May-25 16:30N 49°40' W 001°37'1 2.3
2018-May-25 16:00N 49°39' W 001°37'0 0.0
2018-May-25 15:30N 49°39' W 001°37'0 0.0
2018-May-25 15:00N 49°39' W 001°37'0 0.0
2018-May-25 14:30N 49°39' W 001°37'0 0.0
2018-May-25 14:00N 49°39' W 001°37'0 0.0
2018-May-25 13:30N 49°39' W 001°37'0 0.0
2018-May-25 13:00N 49°39' W 001°37'0 0.0
2018-May-25 12:30N 49°39' W 001°37'0 0.0
2018-May-25 12:00N 49°39' W 001°37'1 2.0
2018-May-25 11:30N 49°40' W 001°37'714.9
2018-May-25 11:00N 49°47' W 001°41'917.5
2018-May-25 10:30N 49°55' W 001°45'917.8
2018-May-25 10:01N 50°03' W 001°51'1018.7
2018-May-25 09:29N 50°13' W 001°51'1619.1
2018-May-25 08:37N 50°30' W 001°52'216.6
2018-May-25 08:30N 50°32' W 001°52'917.8
2018-May-25 08:00N 50°40' W 001°56'3 6.6
2018-May-25 07:30N 50°42' W 001°59'0 0.0
2018-May-25 06:56N 50°42' W 001°59'0 0.0
2018-May-25 06:26N 50°42' W 001°59'0 0.0
2018-May-25 06:00N 50°42' W 001°59'0 0.0
2018-May-25 05:31N 50°42' W 001°59'0 0.0
2018-May-25 05:01N 50°42' W 001°59'0 0.0
2018-May-25 04:31N 50°42' W 001°59'0 0.0
2018-May-25 04:01N 50°42' W 001°59'0 0.0
2018-May-25 03:31N 50°42' W 001°59'0 0.0
2018-May-25 03:01N 50°42' W 001°59'0 0.0
2018-May-25 02:31N 50°42' W 001°59'0 0.0
2018-May-25 02:00N 50°42' W 001°59'0 0.0
2018-May-25 01:29N 50°42' W 001°59'0 0.0
2018-May-25 01:00N 50°42' W 001°59'0 0.0
2018-May-25 00:31N 50°42' W 001°59'0 0.0
2018-May-25 00:00N 50°42' W 001°59'0 0.0
2018-May-24 23:31N 50°42' W 001°59'0 0.0
2018-May-24 23:01N 50°42' W 001°59'0 0.0
2018-May-24 22:30N 50°42' W 001°59'0 0.0
2018-May-24 22:01N 50°42' W 001°59'0 0.0
2018-May-24 21:31N 50°42' W 001°59'0 0.0
2018-May-24 21:01N 50°42' W 001°59'0 0.2
2018-May-24 20:30N 50°42' W 001°59'5 9.8
2018-May-24 20:00N 50°38' W 001°55'917.6
2018-May-24 19:29N 50°29' W 001°52'1818.3
2018-May-24 18:28N 50°11' W 001°47'818.2
2018-May-24 18:00N 50°03' W 001°45'918.2
2018-May-24 17:31N 49°54' W 001°42'917.8
2018-May-24 17:00N 49°45' W 001°41'713.0
2018-May-24 16:30N 49°39' W 001°37'0 0.4
2018-May-24 15:58N 49°39' W 001°37'0 0.0
2018-May-24 15:28N 49°39' W 001°37'0 0.0
2018-May-24 14:58N 49°39' W 001°37'0 0.0
2018-May-24 14:28N 49°39' W 001°37'0 0.0
2018-May-24 13:58N 49°39' W 001°37'0 0.0
2018-May-24 13:20N 49°39' W 001°37'0 0.0
2018-May-24 08:57N 49°39' W 001°37'0 0.0
2018-May-24 08:30N 49°39' W 001°37'0 0.0
2018-May-24 08:00N 49°39' W 001°37'0 0.0
2018-May-24 07:30N 49°39' W 001°37'0 0.0
2018-May-24 06:57N 49°39' W 001°37'0 0.0
2018-May-24 06:30N 49°39' W 001°37'0 0.0
2018-May-24 06:00N 49°39' W 001°37'0 0.0
2018-May-24 05:27N 49°39' W 001°37'0 0.0
2018-May-24 04:57N 49°39' W 001°37'0 0.0
2018-May-24 04:30N 49°39' W 001°37'0 0.0
2018-May-24 04:00N 49°39' W 001°37'0 0.0
2018-May-24 03:30N 49°39' W 001°37'0 0.0
2018-May-24 03:00N 49°39' W 001°37'0 0.0
2018-May-24 02:27N 49°39' W 001°37'0 0.0
2018-May-24 02:01N 49°39' W 001°37'0 0.0
2018-May-24 01:30N 49°39' W 001°37'0 0.0
2018-May-24 01:00N 49°39' W 001°37'0 0.0
2018-May-24 00:31N 49°39' W 001°37'0 0.0
2018-May-24 00:00N 49°39' W 001°37'0 0.0
2018-May-23 23:27N 49°39' W 001°37'0 0.0
2018-May-23 23:00N 49°39' W 001°37'0 0.0
2018-May-23 22:30N 49°39' W 001°37'0 0.0
2018-May-23 22:00N 49°39' W 001°37'0 0.0
2018-May-23 21:30N 49°39' W 001°37'0 0.0
2018-May-23 21:00N 49°39' W 001°37'0 0.0
2018-May-23 20:30N 49°39' W 001°37'0 0.0
2018-May-23 20:00N 49°39' W 001°37'0 0.0
2018-May-23 19:30N 49°39' W 001°37'0 0.0
2018-May-23 19:00N 49°39' W 001°37'0 0.0
2018-May-23 18:30N 49°39' W 001°37'0 0.0
2018-May-23 18:00N 49°39' W 001°37'0 0.0
2018-May-23 17:31N 49°39' W 001°37'0 0.0
2018-May-23 17:00N 49°39' W 001°37'0 0.0
2018-May-23 16:30N 49°39' W 001°37'0 0.0
2018-May-23 16:01N 49°39' W 001°37'0 0.0
2018-May-23 15:30N 49°39' W 001°37'2 3.3
2018-May-23 15:00N 49°40' W 001°38'4 7.9
2018-May-23 14:31N 49°44' W 001°39'1 2.5
2018-May-23 14:01N 49°43' W 001°41'5 9.4
2018-May-23 13:30N 49°39' W 001°37'0 0.9
2018-May-23 13:00N 49°39' W 001°37'0 0.0
2018-May-23 12:30N 49°39' W 001°37'0 0.0
2018-May-23 12:01N 49°39' W 001°37'1 2.5
2018-May-23 11:30N 49°40' W 001°38'816.2
2018-May-23 11:00N 49°48' W 001°42'918.1
2018-May-23 10:30N 49°56' W 001°45'918.4
2018-May-23 10:00N 50°05' W 001°48'918.2
2018-May-23 09:30N 50°15' W 001°50'1718.4
2018-May-23 08:36N 50°31' W 001°53'219.0
2018-May-23 08:30N 50°33' W 001°53'917.3
2018-May-23 08:00N 50°41' W 001°57'2 3.2
2018-May-23 07:25N 50°42' W 001°59'0 0.0
2018-May-23 06:59N 50°42' W 001°59'0 0.0
2018-May-23 06:30N 50°42' W 001°59'0 0.0
2018-May-23 06:00N 50°42' W 001°59'2 3.6
2018-May-23 05:30N 50°41' W 001°57'714.1
2018-May-23 05:00N 50°35' W 001°52'2714.5
2018-May-23 03:08N 50°08' W 001°46'214.2
2018-May-23 03:00N 50°06' W 001°45'714.2
2018-May-23 02:30N 49°59' W 001°44'714.0
2018-May-23 02:00N 49°52' W 001°42'713.8
2018-May-23 01:31N 49°46' W 001°40'3 6.2
2018-May-23 01:01N 49°43' W 001°39'1 1.6
2018-May-23 00:30N 49°43' W 001°40'1 1.4
2018-May-23 00:00N 49°43' W 001°41'1 1.5
2018-May-22 23:30N 49°44' W 001°42'1 1.2
2018-May-22 23:00N 49°44' W 001°42'0 0.5
2018-May-22 22:31N 49°44' W 001°43'0 0.3
2018-May-22 22:00N 49°44' W 001°43'0 1.0
2018-May-22 21:30N 49°44' W 001°42'1 1.8
2018-May-22 21:00N 49°44' W 001°41'3 5.4
2018-May-22 20:31N 49°41' W 001°40'3 5.6
2018-May-22 20:00N 49°39' W 001°37'0 0.0
2018-May-22 19:30N 49°39' W 001°37'0 0.0
2018-May-22 19:00N 49°39' W 001°37'0 0.0
2018-May-22 18:30N 49°39' W 001°37'0 0.0
2018-May-22 17:57N 49°39' W 001°37'0 0.0
2018-May-22 17:31N 49°39' W 001°37'0 0.0
2018-May-22 17:00N 49°39' W 001°37'0 0.0
2018-May-22 16:30N 49°39' W 001°37'0 0.0
2018-May-22 16:00N 49°39' W 001°37'0 0.0
2018-May-22 15:30N 49°39' W 001°37'0 0.0
2018-May-22 15:00N 49°39' W 001°37'0 0.0
2018-May-22 14:30N 49°39' W 001°37'0 0.0
2018-May-22 14:00N 49°39' W 001°37'0 0.0
2018-May-22 13:29N 49°39' W 001°37'0 0.0
2018-May-22 13:00N 49°39' W 001°37'0 0.0
2018-May-22 12:30N 49°39' W 001°37'0 0.0
2018-May-22 12:00N 49°39' W 001°37'1 1.2
2018-May-22 11:30N 49°39' W 001°37'815.0
2018-May-22 11:00N 49°46' W 001°41'918.6
2018-May-22 10:30N 49°56' W 001°44'918.7
2018-May-22 10:00N 50°05' W 001°46'918.6
2018-May-22 09:30N 50°14' W 001°49'1018.7
2018-May-22 09:00N 50°23' W 001°51'918.8
2018-May-22 08:30N 50°33' W 001°52'917.0
2018-May-22 08:00N 50°41' W 001°57'3 4.5
2018-May-22 07:26N 50°42' W 001°59'0 0.0
2018-May-22 06:56N 50°42' W 001°59'0 0.0
2018-May-22 06:29N 50°42' W 001°59'0 0.0
2018-May-22 05:56N 50°42' W 001°59'0 0.0
2018-May-22 05:26N 50°42' W 001°59'0 0.0
2018-May-22 04:59N 50°42' W 001°59'0 0.0
2018-May-22 04:29N 50°42' W 001°59'0 0.0
2018-May-22 03:59N 50°42' W 001°59'0 0.0
2018-May-22 03:29N 50°42' W 001°59'0 0.0
2018-May-22 02:59N 50°42' W 001°59'0 0.0
2018-May-22 02:26N 50°42' W 001°59'0 0.0
2018-May-22 01:59N 50°42' W 001°59'0 0.0
2018-May-22 01:29N 50°42' W 001°59'0 0.0
2018-May-22 00:56N 50°42' W 001°59'0 0.0
2018-May-22 00:20N 50°42' W 001°59'0 0.0
2018-May-21 23:56N 50°42' W 001°59'0 0.0
2018-May-21 23:29N 50°42' W 001°59'0 0.0
2018-May-21 22:56N 50°42' W 001°59'0 0.0
2018-May-21 22:29N 50°42' W 001°59'0 0.0
2018-May-21 21:59N 50°42' W 001°59'0 0.0
2018-May-21 21:29N 50°42' W 001°59'0 0.0
2018-May-21 20:59N 50°42' W 001°59'0 0.3
2018-May-21 20:30N 50°42' W 001°59'4 8.4
2018-May-21 20:00N 50°39' W 001°55'816.0
2018-May-21 19:30N 50°31' W 001°51'1716.8
2018-May-21 18:28N 50°14' W 001°46'918.7
2018-May-21 18:00N 50°06' W 001°43'918.6
2018-May-21 17:30N 49°57' W 001°40'918.8
2018-May-21 17:00N 49°48' W 001°37'816.1
2018-May-21 16:30N 49°40' W 001°37'1 1.5
2018-May-21 16:00N 49°39' W 001°37'0 0.0
2018-May-21 15:30N 49°39' W 001°37'0 0.0
2018-May-21 15:01N 49°39' W 001°37'0 0.0
2018-May-21 14:30N 49°39' W 001°37'0 0.0
2018-May-21 14:00N 49°39' W 001°37'0 0.0
2018-May-21 13:30N 49°39' W 001°37'0 0.0
2018-May-21 13:00N 49°39' W 001°37'0 0.0
2018-May-21 12:31N 49°39' W 001°37'0 0.0
2018-May-21 12:01N 49°39' W 001°37'1 1.8
2018-May-21 11:30N 49°40' W 001°36'916.7
2018-May-21 11:00N 49°48' W 001°37'917.5
2018-May-21 10:30N 49°56' W 001°41'816.9
2018-May-21 10:00N 50°05' W 001°43'817.0
2018-May-21 09:31N 50°13' W 001°46'1017.1
2018-May-21 08:56N 50°23' W 001°49'818.0
2018-May-21 08:28N 50°31' W 001°52'918.6
2018-May-21 08:00N 50°39' W 001°55'4 8.3
2018-May-21 07:30N 50°42' W 001°59'0 0.0
2018-May-21 07:00N 50°42' W 001°59'0 0.0
2018-May-21 06:30N 50°42' W 001°59'0 0.0
2018-May-21 06:00N 50°42' W 001°59'0 0.0
2018-May-21 05:30N 50°42' W 001°59'0 0.0
2018-May-21 05:00N 50°42' W 001°59'0 0.0
2018-May-21 04:30N 50°42' W 001°59'0 0.0
2018-May-21 04:00N 50°42' W 001°59'0 0.0
2018-May-21 03:30N 50°42' W 001°59'0 0.0
2018-May-21 03:00N 50°42' W 001°59'0 0.0
2018-May-21 02:30N 50°42' W 001°59'0 0.0
2018-May-21 02:00N 50°42' W 001°59'0 0.0
2018-May-21 01:30N 50°42' W 001°59'0 0.0
2018-May-21 01:00N 50°42' W 001°59'0 0.0
2018-May-21 00:30N 50°42' W 001°59'0 0.0
2018-May-21 00:00N 50°42' W 001°59'0 0.0
2018-May-20 23:30N 50°42' W 001°59'0 0.0
2018-May-20 23:00N 50°42' W 001°59'0 0.0
2018-May-20 22:30N 50°42' W 001°59'0 0.0
2018-May-20 22:00N 50°42' W 001°59'0 0.0
2018-May-20 21:30N 50°42' W 001°59'0 0.0
2018-May-20 21:00N 50°42' W 001°59'1 1.2
2018-May-20 20:30N 50°42' W 001°59'510.1
2018-May-20 20:00N 50°38' W 001°54'917.2
2018-May-20 19:30N 50°30' W 001°51'816.5
2018-May-20 19:00N 50°22' W 001°49'816.7
2018-May-20 18:30N 50°13' W 001°47'917.6
2018-May-20 18:00N 50°05' W 001°44'918.5
2018-May-20 17:30N 49°55' W 001°43'918.7
2018-May-20 17:00N 49°46' W 001°41'815.3
2018-May-20 16:30N 49°39' W 001°37'0 0.5
2018-May-20 15:59N 49°39' W 001°37'0 0.0
2018-May-20 15:30N 49°39' W 001°37'0 0.0
2018-May-20 15:00N 49°39' W 001°37'0 0.0
2018-May-20 14:30N 49°39' W 001°37'0 0.0
2018-May-20 14:00N 49°39' W 001°37'0 0.0
2018-May-20 13:30N 49°39' W 001°37'0 0.0
2018-May-20 13:00N 49°39' W 001°37'0 0.0
2018-May-20 12:30N 49°39' W 001°37'0 0.0
2018-May-20 12:00N 49°39' W 001°37'1 1.6
2018-May-20 11:30N 49°40' W 001°37'714.9
2018-May-20 11:01N 49°47' W 001°36'917.1
2018-May-20 10:30N 49°55' W 001°39'816.9
2018-May-20 10:00N 50°04' W 001°42'1017.6
2018-May-20 09:27N 50°13' W 001°45'918.8
2018-May-20 08:59N 50°22' W 001°48'918.8
2018-May-20 08:30N 50°31' W 001°51'918.1
2018-May-20 08:00N 50°39' W 001°55'4 8.0
2018-May-20 07:30N 50°42' W 001°59'0 0.5
2018-May-20 06:59N 50°42' W 001°59'0 0.0
2018-May-20 06:30N 50°42' W 001°59'0 0.0
2018-May-20 05:59N 50°42' W 001°59'0 0.0
2018-May-20 05:29N 50°42' W 001°59'0 0.0
2018-May-20 05:00N 50°42' W 001°59'0 0.0
2018-May-20 04:29N 50°42' W 001°59'0 0.0
2018-May-20 03:59N 50°42' W 001°59'0 0.0
2018-May-20 03:29N 50°42' W 001°59'0 0.0
2018-May-20 02:59N 50°42' W 001°59'0 0.0
2018-May-20 02:29N 50°42' W 001°59'0 0.0
2018-May-20 01:59N 50°42' W 001°59'0 0.0
2018-May-20 01:29N 50°42' W 001°59'0 0.0
2018-May-20 00:59N 50°42' W 001°59'0 0.0
2018-May-20 00:29N 50°42' W 001°59'0 0.0
2018-May-19 23:59N 50°42' W 001°59'0 0.0
2018-May-19 23:29N 50°42' W 001°59'0 0.0
2018-May-19 22:59N 50°42' W 001°59'0 0.0
2018-May-19 22:29N 50°42' W 001°59'0 0.0
2018-May-19 21:59N 50°42' W 001°59'0 0.0
2018-May-19 21:29N 50°42' W 001°59'0 0.0
2018-May-19 20:59N 50°42' W 001°59'0 0.1
2018-May-19 20:31N 50°42' W 001°59'5 9.9
2018-May-19 20:00N 50°38' W 001°55'816.6
2018-May-19 19:30N 50°30' W 001°51'816.7
2018-May-19 19:00N 50°22' W 001°49'816.8
2018-May-19 18:30N 50°14' W 001°47'917.2
2018-May-19 18:00N 50°05' W 001°45'918.1
2018-May-19 17:30N 49°56' W 001°43'918.7
2018-May-19 17:00N 49°47' W 001°41'816.1
2018-May-19 16:30N 49°40' W 001°37'1 1.5
2018-May-19 15:59N 49°39' W 001°37'0 0.0
2018-May-19 15:29N 49°39' W 001°37'0 0.0
2018-May-19 15:00N 49°39' W 001°37'0 0.0
2018-May-19 14:30N 49°39' W 001°37'0 0.0
2018-May-19 14:00N 49°39' W 001°37'0 0.0
2018-May-19 13:30N 49°39' W 001°37'0 0.0
2018-May-19 13:00N 49°39' W 001°37'0 0.0
2018-May-19 12:30N 49°39' W 001°37'0 0.0
2018-May-19 12:00N 49°39' W 001°37'1 1.1
2018-May-19 11:31N 49°39' W 001°37'815.5
2018-May-19 11:00N 49°47' W 001°38'918.0
2018-May-19 10:31N 49°56' W 001°42'815.9
2018-May-19 09:59N 50°04' W 001°42'817.5
2018-May-19 09:31N 50°12' W 001°46'917.9
2018-May-19 09:00N 50°21' W 001°48'1018.9
2018-May-19 08:30N 50°30' W 001°52'917.5
2018-May-19 08:00N 50°39' W 001°55'4 7.8
2018-May-19 07:31N 50°42' W 001°58'1 1.7
2018-May-19 06:56N 50°42' W 001°59'0 0.0
2018-May-19 06:29N 50°42' W 001°59'0 0.0
2018-May-19 05:59N 50°42' W 001°59'0 0.0
2018-May-19 05:30N 50°42' W 001°59'0 0.0
2018-May-19 05:00N 50°42' W 001°59'0 0.0
2018-May-19 04:30N 50°42' W 001°59'0 0.0
2018-May-19 04:00N 50°42' W 001°59'0 0.0
2018-May-19 03:30N 50°42' W 001°59'0 0.0
2018-May-19 03:00N 50°42' W 001°59'0 0.0
2018-May-19 02:31N 50°42' W 001°59'0 0.0
2018-May-19 02:00N 50°42' W 001°59'0 0.0
2018-May-19 01:30N 50°42' W 001°59'0 0.0
2018-May-19 01:00N 50°42' W 001°59'0 0.0
2018-May-19 00:30N 50°42' W 001°59'0 0.0
2018-May-19 00:01N 50°42' W 001°59'0 0.0
2018-May-18 23:30N 50°42' W 001°59'0 0.0
2018-May-18 23:00N 50°42' W 001°59'0 0.0
2018-May-18 22:30N 50°42' W 001°59'0 0.0
2018-May-18 22:00N 50°42' W 001°59'0 0.0
2018-May-18 21:30N 50°42' W 001°59'0 0.0
2018-May-18 21:00N 50°42' W 001°59'0 0.1
2018-May-18 20:31N 50°42' W 001°59'510.2
2018-May-18 20:00N 50°38' W 001°55'816.5
2018-May-18 19:30N 50°30' W 001°51'816.7
2018-May-18 19:00N 50°22' W 001°49'916.8
2018-May-18 18:26N 50°13' W 001°46'818.6
2018-May-18 18:01N 50°05' W 001°45'918.6
2018-May-18 17:31N 49°56' W 001°43'918.5
2018-May-18 17:00N 49°46' W 001°41'815.3
2018-May-18 16:30N 49°39' W 001°37'0 0.7
2018-May-18 15:59N 49°39' W 001°37'0 0.0
2018-May-18 15:29N 49°39' W 001°37'0 0.0
2018-May-18 14:59N 49°39' W 001°37'0 0.0
2018-May-18 14:29N 49°39' W 001°37'0 0.0
2018-May-18 13:57N 49°39' W 001°37'0 0.0
2018-May-18 13:31N 49°39' W 001°37'0 0.0
2018-May-18 13:01N 49°39' W 001°37'0 0.0
2018-May-18 12:30N 49°39' W 001°37'0 0.0
2018-May-18 12:00N 49°39' W 001°37'0 0.6
2018-May-18 11:31N 49°39' W 001°37'714.2
2018-May-18 11:00N 49°46' W 001°37'917.0
2018-May-18 10:30N 49°55' W 001°39'816.9
2018-May-18 10:00N 50°03' W 001°42'917.0
2018-May-18 09:30N 50°11' W 001°44'917.4
2018-May-18 09:00N 50°20' W 001°46'918.0
2018-May-18 08:30N 50°29' W 001°50'918.4
2018-May-18 08:00N 50°38' W 001°54'510.4
2018-May-18 07:31N 50°42' W 001°58'1 2.1
2018-May-18 06:59N 50°42' W 001°59'0 0.0
2018-May-18 06:26N 50°42' W 001°59'0 0.0
2018-May-18 05:56N 50°42' W 001°59'0 0.0
2018-May-18 05:26N 50°42' W 001°59'0 0.0
2018-May-18 04:59N 50°42' W 001°59'0 0.0
2018-May-18 04:26N 50°42' W 001°59'0 0.0
2018-May-18 03:59N 50°42' W 001°59'0 0.0
2018-May-18 03:29N 50°42' W 001°59'0 0.0
2018-May-18 02:56N 50°42' W 001°59'0 0.0
2018-May-18 02:26N 50°42' W 001°59'0 0.0
2018-May-18 01:56N 50°42' W 001°59'0 0.0
2018-May-18 01:29N 50°42' W 001°59'0 0.0
2018-May-18 00:59N 50°42' W 001°59'0 0.0
2018-May-18 00:26N 50°42' W 001°59'0 0.0
2018-May-17 23:59N 50°42' W 001°59'0 0.0
2018-May-17 23:26N 50°42' W 001°59'0 0.0
2018-May-17 22:56N 50°42' W 001°59'0 0.0
2018-May-17 22:29N 50°42' W 001°59'0 0.0
2018-May-17 21:59N 50°42' W 001°59'0 0.0
2018-May-17 21:29N 50°42' W 001°59'0 0.0
2018-May-17 21:01N 50°42' W 001°59'0 0.2
2018-May-17 20:31N 50°42' W 001°59'5 9.7
2018-May-17 20:00N 50°39' W 001°55'917.3
2018-May-17 19:30N 50°30' W 001°50'1817.3
2018-May-17 18:29N 50°13' W 001°47'918.7
2018-May-17 18:00N 50°04' W 001°45'918.7
2018-May-17 17:30N 49°55' W 001°43'918.5
2018-May-17 17:00N 49°46' W 001°41'713.7
2018-May-17 16:29N 49°39' W 001°37'0 0.4
2018-May-17 15:59N 49°39' W 001°37'0 0.0
2018-May-17 15:29N 49°39' W 001°37'0 0.0
2018-May-17 14:59N 49°39' W 001°37'0 0.0
2018-May-17 14:29N 49°39' W 001°37'0 0.0
2018-May-17 13:59N 49°39' W 001°37'  
Track history (hours):
 
Tides and Currents Weather Stations Pressure Air Temp Water Temp Dewpoint Dewpoint Depression Visibility Wind Speed Wind Dir Waves Ship Positions

Barfleur

Operator: Brittany Ferries

Last reported at 2018-May-27 13:30 UTC. Time now 2018-May-27 13:55 UTC.
Position N 49°39' W 001°37'.

Length 158 m; draft 5 m.

Type: Ship. MMSI: 227289000.

Date/timePositionNaut miles runAvg speedWind from/ knotsBaromVisibWave heightAir tempDewpointWater temp
2018-May-27 13:30N 49°39' W 001°37'0 0.0
2018-May-27 13:00N 49°39' W 001°37'0 0.0
2018-May-27 12:31N 49°39' W 001°37'0 0.0
2018-May-27 12:01N 49°39' W 001°37'0 0.6
2018-May-27 11:31N 49°39' W 001°37'611.7
2018-May-27 11:00N 49°44' W 001°41'918.3
2018-May-27 10:30N 49°53' W 001°43'918.7
2018-May-27 10:01N 50°03' W 001°46'1019.0
2018-May-27 09:31N 50°12' W 001°48'1019.1
2018-May-27 09:00N 50°22' W 001°50'919.0
2018-May-27 08:30N 50°31' W 001°52'917.4
2018-May-27 08:00N 50°39' W 001°55'4 8.1
2018-May-27 07:30N 50°42' W 001°59'0 0.0
2018-May-27 06:58N 50°42' W 001°59'0 0.0
2018-May-27 06:30N 50°42' W 001°59'0 0.0
2018-May-27 05:58N 50°42' W 001°59'0 0.0
2018-May-27 05:31N 50°42' W 001°59'0 0.0
2018-May-27 04:59N 50°42' W 001°59'0 0.0
2018-May-27 04:30N 50°42' W 001°59'0 0.0
2018-May-27 04:00N 50°42' W 001°59'0 0.0
2018-May-27 03:30N 50°42' W 001°59'0 0.0
2018-May-27 03:00N 50°42' W 001°59'0 0.0
2018-May-27 02:28N 50°42' W 001°59'0 0.0
2018-May-27 01:58N 50°42' W 001°59'0 0.0
2018-May-27 01:29N 50°42' W 001°59'0 0.0
2018-May-27 01:01N 50°42' W 001°59'0 0.0
2018-May-27 00:30N 50°42' W 001°59'0 0.0
2018-May-27 00:00N 50°42' W 001°59'0 0.0
2018-May-26 23:30N 50°42' W 001°59'0 0.0
2018-May-26 23:00N 50°42' W 001°59'0 0.0
2018-May-26 22:29N 50°42' W 001°59'0 0.0
2018-May-26 21:53N 50°42' W 001°59'0 0.0
2018-May-26 21:30N 50°42' W 001°59'0 0.6
2018-May-26 20:59N 50°42' W 001°59'4 8.7
2018-May-26 20:30N 50°39' W 001°55'816.1
2018-May-26 20:00N 50°31' W 001°52'1 0.1
2018-May-26 08:30N 50°30' W 001°52'918.6
2018-May-26 08:00N 50°39' W 001°55'4 7.7
2018-May-26 07:29N 50°42' W 001°59'0 0.0
2018-May-26 06:59N 50°42' W 001°59'0 0.0
2018-May-26 06:29N 50°42' W 001°59'0 0.0
2018-May-26 05:29N 50°42' W 001°59'0 0.0
2018-May-26 04:54N 50°42' W 001°59'0 0.0
2018-May-26 04:30N 50°42' W 001°59'0 0.0
2018-May-26 03:55N 50°42' W 001°59'0 0.0
2018-May-26 03:30N 50°42' W 001°59'0 0.0
2018-May-26 03:00N 50°42' W 001°59'0 0.0
2018-May-26 02:31N 50°42' W 001°59'0 0.0
2018-May-26 01:58N 50°42' W 001°59'0 0.0
2018-May-26 01:28N 50°42' W 001°59'0 0.0
2018-May-26 00:56N 50°42' W 001°59'0 0.0
2018-May-26 00:25N 50°42' W 001°59'0 0.0
2018-May-25 23:56N 50°42' W 001°59'0 0.0
2018-May-25 23:29N 50°42' W 001°59'0 0.0
2018-May-25 22:56N 50°42' W 001°59'0 0.0
2018-May-25 22:25N 50°42' W 001°59'0 0.0
2018-May-25 21:58N 50°42' W 001°59'0 0.0
2018-May-25 21:28N 50°42' W 001°59'0 0.0
2018-May-25 21:00N 50°42' W 001°59'0 1.0
2018-May-25 20:30N 50°42' W 001°59'611.3
2018-May-25 20:00N 50°38' W 001°54'1117.4
2018-May-25 19:21N 50°26' W 001°52'717.8
2018-May-25 18:59N 50°20' W 001°51'918.2
2018-May-25 18:29N 50°11' W 001°49'918.2
2018-May-25 18:00N 50°02' W 001°47'918.1
2018-May-25 17:30N 49°53' W 001°45'917.3
2018-May-25 17:01N 49°45' W 001°42'611.6
2018-May-25 16:30N 49°40' W 001°37'1 2.3
2018-May-25 16:00N 49°39' W 001°37'0 0.0
2018-May-25 15:30N 49°39' W 001°37'0 0.0
2018-May-25 15:00N 49°39' W 001°37'0 0.0
2018-May-25 14:30N 49°39' W 001°37'0 0.0
2018-May-25 14:00N 49°39' W 001°37'0 0.0
2018-May-25 13:30N 49°39' W 001°37'0 0.0
2018-May-25 13:00N 49°39' W 001°37'0 0.0
2018-May-25 12:30N 49°39' W 001°37'0 0.0
2018-May-25 12:00N 49°39' W 001°37'1 2.0
2018-May-25 11:30N 49°40' W 001°37'714.9
2018-May-25 11:00N 49°47' W 001°41'917.5
2018-May-25 10:30N 49°55' W 001°45'917.8
2018-May-25 10:01N 50°03' W 001°51'1018.7
2018-May-25 09:29N 50°13' W 001°51'1619.1
2018-May-25 08:37N 50°30' W 001°52'216.6
2018-May-25 08:30N 50°32' W 001°52'917.8
2018-May-25 08:00N 50°40' W 001°56'3 6.6
2018-May-25 07:30N 50°42' W 001°59'0 0.0
2018-May-25 06:56N 50°42' W 001°59'0 0.0
2018-May-25 06:26N 50°42' W 001°59'0 0.0
2018-May-25 06:00N 50°42' W 001°59'0 0.0
2018-May-25 05:31N 50°42' W 001°59'0 0.0
2018-May-25 05:01N 50°42' W 001°59'0 0.0
2018-May-25 04:31N 50°42' W 001°59'0 0.0
2018-May-25 04:01N 50°42' W 001°59'0 0.0
2018-May-25 03:31N 50°42' W 001°59'0 0.0
2018-May-25 03:01N 50°42' W 001°59'0 0.0
2018-May-25 02:31N 50°42' W 001°59'0 0.0
2018-May-25 02:00N 50°42' W 001°59'0 0.0
2018-May-25 01:29N 50°42' W 001°59'0 0.0
2018-May-25 01:00N 50°42' W 001°59'0 0.0
2018-May-25 00:31N 50°42' W 001°59'0 0.0
2018-May-25 00:00N 50°42' W 001°59'0 0.0
2018-May-24 23:31N 50°42' W 001°59'0 0.0
2018-May-24 23:01N 50°42' W 001°59'0 0.0
2018-May-24 22:30N 50°42' W 001°59'0 0.0
2018-May-24 22:01N 50°42' W 001°59'0 0.0
2018-May-24 21:31N 50°42' W 001°59'0 0.0
2018-May-24 21:01N 50°42' W 001°59'0 0.2
2018-May-24 20:30N 50°42' W 001°59'5 9.8
2018-May-24 20:00N 50°38' W 001°55'917.6
2018-May-24 19:29N 50°29' W 001°52'1818.3
2018-May-24 18:28N 50°11' W 001°47'818.2
2018-May-24 18:00N 50°03' W 001°45'918.2
2018-May-24 17:31N 49°54' W 001°42'917.8
2018-May-24 17:00N 49°45' W 001°41'713.0
2018-May-24 16:30N 49°39' W 001°37'0 0.4
2018-May-24 15:58N 49°39' W 001°37'0 0.0
2018-May-24 15:28N 49°39' W 001°37'0 0.0
2018-May-24 14:58N 49°39' W 001°37'0 0.0
2018-May-24 14:28N 49°39' W 001°37'0 0.0
2018-May-24 13:58N 49°39' W 001°37'0 0.0
2018-May-24 13:20N 49°39' W 001°37'0 0.0
2018-May-24 08:57N 49°39' W 001°37'0 0.0
2018-May-24 08:30N 49°39' W 001°37'0 0.0
2018-May-24 08:00N 49°39' W 001°37'0 0.0
2018-May-24 07:30N 49°39' W 001°37'0 0.0
2018-May-24 06:57N 49°39' W 001°37'0 0.0
2018-May-24 06:30N 49°39' W 001°37'0 0.0
2018-May-24 06:00N 49°39' W 001°37'0 0.0
2018-May-24 05:27N 49°39' W 001°37'0 0.0
2018-May-24 04:57N 49°39' W 001°37'0 0.0
2018-May-24 04:30N 49°39' W 001°37'0 0.0
2018-May-24 04:00N 49°39' W 001°37'0 0.0
2018-May-24 03:30N 49°39' W 001°37'0 0.0
2018-May-24 03:00N 49°39' W 001°37'0 0.0
2018-May-24 02:27N 49°39' W 001°37'0 0.0
2018-May-24 02:01N 49°39' W 001°37'0 0.0
2018-May-24 01:30N 49°39' W 001°37'0 0.0
2018-May-24 01:00N 49°39' W 001°37'0 0.0
2018-May-24 00:31N 49°39' W 001°37'0 0.0
2018-May-24 00:00N 49°39' W 001°37'0 0.0
2018-May-23 23:27N 49°39' W 001°37'0 0.0
2018-May-23 23:00N 49°39' W 001°37'0 0.0
2018-May-23 22:30N 49°39' W 001°37'0 0.0
2018-May-23 22:00N 49°39' W 001°37'0 0.0
2018-May-23 21:30N 49°39' W 001°37'0 0.0
2018-May-23 21:00N 49°39' W 001°37'0 0.0
2018-May-23 20:30N 49°39' W 001°37'0 0.0
2018-May-23 20:00N 49°39' W 001°37'0 0.0
2018-May-23 19:30N 49°39' W 001°37'0 0.0
2018-May-23 19:00N 49°39' W 001°37'0 0.0
2018-May-23 18:30N 49°39' W 001°37'0 0.0
2018-May-23 18:00N 49°39' W 001°37'0 0.0
2018-May-23 17:31N 49°39' W 001°37'0 0.0
2018-May-23 17:00N 49°39' W 001°37'0 0.0
2018-May-23 16:30N 49°39' W 001°37'0 0.0
2018-May-23 16:01N 49°39' W 001°37'0 0.0
2018-May-23 15:30N 49°39' W 001°37'2 3.3
2018-May-23 15:00N 49°40' W 001°38'4 7.9
2018-May-23 14:31N 49°44' W 001°39'1 2.5
2018-May-23 14:01N 49°43' W 001°41'5 9.4
2018-May-23 13:30N 49°39' W 001°37'0 0.9
2018-May-23 13:00N 49°39' W 001°37'0 0.0
2018-May-23 12:30N 49°39' W 001°37'0 0.0
2018-May-23 12:01N 49°39' W 001°37'1 2.5
2018-May-23 11:30N 49°40' W 001°38'816.2
2018-May-23 11:00N 49°48' W 001°42'918.1
2018-May-23 10:30N 49°56' W 001°45'918.4
2018-May-23 10:00N 50°05' W 001°48'918.2
2018-May-23 09:30N 50°15' W 001°50'1718.4
2018-May-23 08:36N 50°31' W 001°53'219.0
2018-May-23 08:30N 50°33' W 001°53'917.3
2018-May-23 08:00N 50°41' W 001°57'2 3.2
2018-May-23 07:25N 50°42' W 001°59'0 0.0
2018-May-23 06:59N 50°42' W 001°59'0 0.0
2018-May-23 06:30N 50°42' W 001°59'0 0.0
2018-May-23 06:00N 50°42' W 001°59'2 3.6
2018-May-23 05:30N 50°41' W 001°57'714.1
2018-May-23 05:00N 50°35' W 001°52'2714.5
2018-May-23 03:08N 50°08' W 001°46'214.2
2018-May-23 03:00N 50°06' W 001°45'714.2
2018-May-23 02:30N 49°59' W 001°44'714.0
2018-May-23 02:00N 49°52' W 001°42'713.8
2018-May-23 01:31N 49°46' W 001°40'3 6.2
2018-May-23 01:01N 49°43' W 001°39'1 1.6
2018-May-23 00:30N 49°43' W 001°40'1 1.4
2018-May-23 00:00N 49°43' W 001°41'1 1.5
2018-May-22 23:30N 49°44' W 001°42'1 1.2
2018-May-22 23:00N 49°44' W 001°42'0 0.5
2018-May-22 22:31N 49°44' W 001°43'0 0.3
2018-May-22 22:00N 49°44' W 001°43'0 1.0
2018-May-22 21:30N 49°44' W 001°42'1 1.8
2018-May-22 21:00N 49°44' W 001°41'3 5.4
2018-May-22 20:31N 49°41' W 001°40'3 5.6
2018-May-22 20:00N 49°39' W 001°37'0 0.0
2018-May-22 19:30N 49°39' W 001°37'0 0.0
2018-May-22 19:00N 49°39' W 001°37'0 0.0
2018-May-22 18:30N 49°39' W 001°37'0 0.0
2018-May-22 17:57N 49°39' W 001°37'0 0.0
2018-May-22 17:31N 49°39' W 001°37'0 0.0
2018-May-22 17:00N 49°39' W 001°37'0 0.0
2018-May-22 16:30N 49°39' W 001°37'0 0.0
2018-May-22 16:00N 49°39' W 001°37'0 0.0
2018-May-22 15:30N 49°39' W 001°37'0 0.0
2018-May-22 15:00N 49°39' W 001°37'0 0.0
2018-May-22 14:30N 49°39' W 001°37'0 0.0
2018-May-22 14:00N 49°39' W 001°37'0 0.0
2018-May-22 13:29N 49°39' W 001°37'0 0.0
2018-May-22 13:00N 49°39' W 001°37'0 0.0
2018-May-22 12:30N 49°39' W 001°37'0 0.0
2018-May-22 12:00N 49°39' W 001°37'1 1.2
2018-May-22 11:30N 49°39' W 001°37'815.0
2018-May-22 11:00N 49°46' W 001°41'918.6
2018-May-22 10:30N 49°56' W 001°44'918.7
2018-May-22 10:00N 50°05' W 001°46'918.6
2018-May-22 09:30N 50°14' W 001°49'1018.7
2018-May-22 09:00N 50°23' W 001°51'918.8
2018-May-22 08:30N 50°33' W 001°52'917.0
2018-May-22 08:00N 50°41' W 001°57'3 4.5
2018-May-22 07:26N 50°42' W 001°59'0 0.0
2018-May-22 06:56N 50°42' W 001°59'0 0.0
2018-May-22 06:29N 50°42' W 001°59'0 0.0
2018-May-22 05:56N 50°42' W 001°59'0 0.0
2018-May-22 05:26N 50°42' W 001°59'0 0.0
2018-May-22 04:59N 50°42' W 001°59'0 0.0
2018-May-22 04:29N 50°42' W 001°59'0 0.0
2018-May-22 03:59N 50°42' W 001°59'0 0.0
2018-May-22 03:29N 50°42' W 001°59'0 0.0
2018-May-22 02:59N 50°42' W 001°59'0 0.0
2018-May-22 02:26N 50°42' W 001°59'0 0.0
2018-May-22 01:59N 50°42' W 001°59'0 0.0
2018-May-22 01:29N 50°42' W 001°59'0 0.0
2018-May-22 00:56N 50°42' W 001°59'0 0.0
2018-May-22 00:20N 50°42' W 001°59'0 0.0
2018-May-21 23:56N 50°42' W 001°59'0 0.0
2018-May-21 23:29N 50°42' W 001°59'0 0.0
2018-May-21 22:56N 50°42' W 001°59'0 0.0
2018-May-21 22:29N 50°42' W 001°59'0 0.0
2018-May-21 21:59N 50°42' W 001°59'0 0.0
2018-May-21 21:29N 50°42' W 001°59'0 0.0
2018-May-21 20:59N 50°42' W 001°59'0 0.3
2018-May-21 20:30N 50°42' W 001°59'4 8.4
2018-May-21 20:00N 50°39' W 001°55'816.0
2018-May-21 19:30N 50°31' W 001°51'1716.8
2018-May-21 18:28N 50°14' W 001°46'918.7
2018-May-21 18:00N 50°06' W 001°43'918.6
2018-May-21 17:30N 49°57' W 001°40'918.8
2018-May-21 17:00N 49°48' W 001°37'816.1
2018-May-21 16:30N 49°40' W 001°37'1 1.5
2018-May-21 16:00N 49°39' W 001°37'0 0.0
2018-May-21 15:30N 49°39' W 001°37'0 0.0
2018-May-21 15:01N 49°39' W 001°37'0 0.0
2018-May-21 14:30N 49°39' W 001°37'0 0.0
2018-May-21 14:00N 49°39' W 001°37'0 0.0
2018-May-21 13:30N 49°39' W 001°37'0 0.0
2018-May-21 13:00N 49°39' W 001°37'0 0.0
2018-May-21 12:31N 49°39' W 001°37'0 0.0
2018-May-21 12:01N 49°39' W 001°37'1 1.8
2018-May-21 11:30N 49°40' W 001°36'916.7
2018-May-21 11:00N 49°48' W 001°37'917.5
2018-May-21 10:30N 49°56' W 001°41'816.9
2018-May-21 10:00N 50°05' W 001°43'817.0
2018-May-21 09:31N 50°13' W 001°46'1017.1
2018-May-21 08:56N 50°23' W 001°49'818.0
2018-May-21 08:28N 50°31' W 001°52'918.6
2018-May-21 08:00N 50°39' W 001°55'4 8.3
2018-May-21 07:30N 50°42' W 001°59'0 0.0
2018-May-21 07:00N 50°42' W 001°59'0 0.0
2018-May-21 06:30N 50°42' W 001°59'0 0.0
2018-May-21 06:00N 50°42' W 001°59'0 0.0
2018-May-21 05:30N 50°42' W 001°59'0 0.0
2018-May-21 05:00N 50°42' W 001°59'0 0.0
2018-May-21 04:30N 50°42' W 001°59'0 0.0
2018-May-21 04:00N 50°42' W 001°59'0 0.0
2018-May-21 03:30N 50°42' W 001°59'0 0.0
2018-May-21 03:00N 50°42' W 001°59'0 0.0
2018-May-21 02:30N 50°42' W 001°59'0 0.0
2018-May-21 02:00N 50°42' W 001°59'0 0.0
2018-May-21 01:30N 50°42' W 001°59'0 0.0
2018-May-21 01:00N 50°42' W 001°59'0 0.0
2018-May-21 00:30N 50°42' W 001°59'0 0.0
2018-May-21 00:00N 50°42' W 001°59'0 0.0
2018-May-20 23:30N 50°42' W 001°59'0 0.0
2018-May-20 23:00N 50°42' W 001°59'0 0.0
2018-May-20 22:30N 50°42' W 001°59'0 0.0
2018-May-20 22:00N 50°42' W 001°59'0 0.0
2018-May-20 21:30N 50°42' W 001°59'0 0.0
2018-May-20 21:00N 50°42' W 001°59'1 1.2
2018-May-20 20:30N 50°42' W 001°59'510.1
2018-May-20 20:00N 50°38' W 001°54'917.2
2018-May-20 19:30N 50°30' W 001°51'816.5
2018-May-20 19:00N 50°22' W 001°49'816.7
2018-May-20 18:30N 50°13' W 001°47'917.6
2018-May-20 18:00N 50°05' W 001°44'918.5
2018-May-20 17:30N 49°55' W 001°43'918.7
2018-May-20 17:00N 49°46' W 001°41'815.3
2018-May-20 16:30N 49°39' W 001°37'0 0.5
2018-May-20 15:59N 49°39' W 001°37'0 0.0
2018-May-20 15:30N 49°39' W 001°37'0 0.0
2018-May-20 15:00N 49°39' W 001°37'0 0.0
2018-May-20 14:30N 49°39' W 001°37'0 0.0
2018-May-20 14:00N 49°39' W 001°37'0 0.0
2018-May-20 13:30N 49°39' W 001°37'0 0.0
2018-May-20 13:00N 49°39' W 001°37'0 0.0
2018-May-20 12:30N 49°39' W 001°37'0 0.0
2018-May-20 12:00N 49°39' W 001°37'1 1.6
2018-May-20 11:30N 49°40' W 001°37'714.9
2018-May-20 11:01N 49°47' W 001°36'917.1
2018-May-20 10:30N 49°55' W 001°39'816.9
2018-May-20 10:00N 50°04' W 001°42'1017.6
2018-May-20 09:27N 50°13' W 001°45'918.8
2018-May-20 08:59N 50°22' W 001°48'918.8
2018-May-20 08:30N 50°31' W 001°51'918.1
2018-May-20 08:00N 50°39' W 001°55'4 8.0
2018-May-20 07:30N 50°42' W 001°59'0 0.5
2018-May-20 06:59N 50°42' W 001°59'0 0.0
2018-May-20 06:30N 50°42' W 001°59'0 0.0
2018-May-20 05:59N 50°42' W 001°59'0 0.0
2018-May-20 05:29N 50°42' W 001°59'0 0.0
2018-May-20 05:00N 50°42' W 001°59'0 0.0
2018-May-20 04:29N 50°42' W 001°59'0 0.0
2018-May-20 03:59N 50°42' W 001°59'0 0.0
2018-May-20 03:29N 50°42' W 001°59'0 0.0
2018-May-20 02:59N 50°42' W 001°59'0 0.0
2018-May-20 02:29N 50°42' W 001°59'0 0.0
2018-May-20 01:59N 50°42' W 001°59'0 0.0
2018-May-20 01:29N 50°42' W 001°59'0 0.0
2018-May-20 00:59N 50°42' W 001°59'0 0.0
2018-May-20 00:29N 50°42' W 001°59'0 0.0
2018-May-19 23:59N 50°42' W 001°59'0 0.0
2018-May-19 23:29N 50°42' W 001°59'0 0.0
2018-May-19 22:59N 50°42' W 001°59'0 0.0
2018-May-19 22:29N 50°42' W 001°59'0 0.0
2018-May-19 21:59N 50°42' W 001°59'0 0.0
2018-May-19 21:29N 50°42' W 001°59'0 0.0
2018-May-19 20:59N 50°42' W 001°59'0 0.1
2018-May-19 20:31N 50°42' W 001°59'5 9.9
2018-May-19 20:00N 50°38' W 001°55'816.6
2018-May-19 19:30N 50°30' W 001°51'816.7
2018-May-19 19:00N 50°22' W 001°49'816.8
2018-May-19 18:30N 50°14' W 001°47'917.2
2018-May-19 18:00N 50°05' W 001°45'918.1
2018-May-19 17:30N 49°56' W 001°43'918.7
2018-May-19 17:00N 49°47' W 001°41'816.1
2018-May-19 16:30N 49°40' W 001°37'1 1.5
2018-May-19 15:59N 49°39' W 001°37'0 0.0
2018-May-19 15:29N 49°39' W 001°37'0 0.0
2018-May-19 15:00N 49°39' W 001°37'0 0.0
2018-May-19 14:30N 49°39' W 001°37'0 0.0
2018-May-19 14:00N 49°39' W 001°37'0 0.0
2018-May-19 13:30N 49°39' W 001°37'0 0.0
2018-May-19 13:00N 49°39' W 001°37'0 0.0
2018-May-19 12:30N 49°39' W 001°37'0 0.0
2018-May-19 12:00N 49°39' W 001°37'1 1.1
2018-May-19 11:31N 49°39' W 001°37'815.5
2018-May-19 11:00N 49°47' W 001°38'918.0
2018-May-19 10:31N 49°56' W 001°42'815.9
2018-May-19 09:59N 50°04' W 001°42'817.5
2018-May-19 09:31N 50°12' W 001°46'917.9
2018-May-19 09:00N 50°21' W 001°48'1018.9
2018-May-19 08:30N 50°30' W 001°52'917.5
2018-May-19 08:00N 50°39' W 001°55'4 7.8
2018-May-19 07:31N 50°42' W 001°58'1 1.7
2018-May-19 06:56N 50°42' W 001°59'0 0.0
2018-May-19 06:29N 50°42' W 001°59'0 0.0
2018-May-19 05:59N 50°42' W 001°59'0 0.0
2018-May-19 05:30N 50°42' W 001°59'0 0.0
2018-May-19 05:00N 50°42' W 001°59'0 0.0
2018-May-19 04:30N 50°42' W 001°59'0 0.0
2018-May-19 04:00N 50°42' W 001°59'0 0.0
2018-May-19 03:30N 50°42' W 001°59'0 0.0
2018-May-19 03:00N 50°42' W 001°59'0 0.0
2018-May-19 02:31N 50°42' W 001°59'0 0.0
2018-May-19 02:00N 50°42' W 001°59'0 0.0
2018-May-19 01:30N 50°42' W 001°59'0 0.0
2018-May-19 01:00N 50°42' W 001°59'0 0.0
2018-May-19 00:30N 50°42' W 001°59'0 0.0
2018-May-19 00:01N 50°42' W 001°59'0 0.0
2018-May-18 23:30N 50°42' W 001°59'0 0.0
2018-May-18 23:00N 50°42' W 001°59'0 0.0
2018-May-18 22:30N 50°42' W 001°59'0 0.0
2018-May-18 22:00N 50°42' W 001°59'0 0.0
2018-May-18 21:30N 50°42' W 001°59'0 0.0
2018-May-18 21:00N 50°42' W 001°59'0 0.1
2018-May-18 20:31N 50°42' W 001°59'510.2
2018-May-18 20:00N 50°38' W 001°55'816.5
2018-May-18 19:30N 50°30' W 001°51'816.7
2018-May-18 19:00N 50°22' W 001°49'916.8
2018-May-18 18:26N 50°13' W 001°46'818.6
2018-May-18 18:01N 50°05' W 001°45'918.6
2018-May-18 17:31N 49°56' W 001°43'918.5
2018-May-18 17:00N 49°46' W 001°41'815.3
2018-May-18 16:30N 49°39' W 001°37'0 0.7
2018-May-18 15:59N 49°39' W 001°37'0 0.0
2018-May-18 15:29N 49°39' W 001°37'0 0.0
2018-May-18 14:59N 49°39' W 001°37'0 0.0
2018-May-18 14:29N 49°39' W 001°37'0 0.0
2018-May-18 13:57N 49°39' W 001°37'0 0.0
2018-May-18 13:31N 49°39' W 001°37'0 0.0
2018-May-18 13:01N 49°39' W 001°37'0 0.0
2018-May-18 12:30N 49°39' W 001°37'0 0.0
2018-May-18 12:00N 49°39' W 001°37'0 0.6
2018-May-18 11:31N 49°39' W 001°37'714.2
2018-May-18 11:00N 49°46' W 001°37'917.0
2018-May-18 10:30N 49°55' W 001°39'816.9
2018-May-18 10:00N 50°03' W 001°42'917.0
2018-May-18 09:30N 50°11' W 001°44'917.4
2018-May-18 09:00N 50°20' W 001°46'918.0
2018-May-18 08:30N 50°29' W 001°50'918.4
2018-May-18 08:00N 50°38' W 001°54'510.4
2018-May-18 07:31N 50°42' W 001°58'1 2.1
2018-May-18 06:59N 50°42' W 001°59'0 0.0
2018-May-18 06:26N 50°42' W 001°59'0 0.0
2018-May-18 05:56N 50°42' W 001°59'0 0.0
2018-May-18 05:26N 50°42' W 001°59'0 0.0
2018-May-18 04:59N 50°42' W 001°59'0 0.0
2018-May-18 04:26N 50°42' W 001°59'0 0.0
2018-May-18 03:59N 50°42' W 001°59'0 0.0
2018-May-18 03:29N 50°42' W 001°59'0 0.0
2018-May-18 02:56N 50°42' W 001°59'0 0.0
2018-May-18 02:26N 50°42' W 001°59'0 0.0
2018-May-18 01:56N 50°42' W 001°59'0 0.0
2018-May-18 01:29N 50°42' W 001°59'0 0.0
2018-May-18 00:59N 50°42' W 001°59'0 0.0
2018-May-18 00:26N 50°42' W 001°59'0 0.0
2018-May-17 23:59N 50°42' W 001°59'0 0.0
2018-May-17 23:26N 50°42' W 001°59'0 0.0
2018-May-17 22:56N 50°42' W 001°59'0 0.0
2018-May-17 22:29N 50°42' W 001°59'0 0.0
2018-May-17 21:59N 50°42' W 001°59'0 0.0
2018-May-17 21:29N 50°42' W 001°59'0 0.0
2018-May-17 21:01N 50°42' W 001°59'0 0.2
2018-May-17 20:31N 50°42' W 001°59'5 9.7
2018-May-17 20:00N 50°39' W 001°55'917.3
2018-May-17 19:30N 50°30' W 001°50'1817.3
2018-May-17 18:29N 50°13' W 001°47'918.7
2018-May-17 18:00N 50°04' W 001°45'918.7
2018-May-17 17:30N 49°55' W 001°43'918.5
2018-May-17 17:00N 49°46' W 001°41'713.7
2018-May-17 16:29N 49°39' W 001°37'0 0.4
2018-May-17 15:59N 49°39' W 001°37'0 0.0
2018-May-17 15:29N 49°39' W 001°37'0 0.0
2018-May-17 14:59N 49°39' W 001°37'0 0.0
2018-May-17 14:29N 49°39' W 001°37'0 0.0
2018-May-17 13:59N 49°39' W 001°37'  

Dump ship's entire track history